sensor_id;sensor_type;location;lat;lon;timestamp;temperature;humidity
54938;DHT22;52756;52.826;6.214;2023-08-06T00:00:25;15.30;86.20
54938;DHT22;52756;52.826;6.214;2023-08-06T00:02:51;15.40;86.30
54938;DHT22;52756;52.826;6.214;2023-08-06T00:05:17;15.40;86.30
54938;DHT22;52756;52.826;6.214;2023-08-06T00:07:49;15.40;86.30
54938;DHT22;52756;52.826;6.214;2023-08-06T00:10:15;15.40;86.30
54938;DHT22;52756;52.826;6.214;2023-08-06T00:12:41;15.40;86.30
54938;DHT22;52756;52.826;6.214;2023-08-06T00:15:07;15.40;86.30
54938;DHT22;52756;52.826;6.214;2023-08-06T00:17:33;15.40;86.40
54938;DHT22;52756;52.826;6.214;2023-08-06T00:19:59;15.40;86.40
54938;DHT22;52756;52.826;6.214;2023-08-06T00:22:31;15.40;86.40
54938;DHT22;52756;52.826;6.214;2023-08-06T00:24:57;15.40;86.40
54938;DHT22;52756;52.826;6.214;2023-08-06T00:27:23;15.40;86.30
54938;DHT22;52756;52.826;6.214;2023-08-06T00:29:49;15.40;86.30
54938;DHT22;52756;52.826;6.214;2023-08-06T00:32:14;15.40;86.30
54938;DHT22;52756;52.826;6.214;2023-08-06T00:34:40;15.40;86.20
54938;DHT22;52756;52.826;6.214;2023-08-06T00:37:06;15.40;86.20
54938;DHT22;52756;52.826;6.214;2023-08-06T00:39:31;15.40;86.10
54938;DHT22;52756;52.826;6.214;2023-08-06T00:41:58;15.40;86.10
54938;DHT22;52756;52.826;6.214;2023-08-06T00:44:24;15.50;86.50
54938;DHT22;52756;52.826;6.214;2023-08-06T00:46:50;15.40;86.00
54938;DHT22;52756;52.826;6.214;2023-08-06T00:49:16;15.40;86.00
54938;DHT22;52756;52.826;6.214;2023-08-06T00:51:42;15.50;86.00
54938;DHT22;52756;52.826;6.214;2023-08-06T00:54:09;15.40;86.00
54938;DHT22;52756;52.826;6.214;2023-08-06T00:56:35;15.50;86.00
54938;DHT22;52756;52.826;6.214;2023-08-06T00:59:03;15.50;85.90
54938;DHT22;52756;52.826;6.214;2023-08-06T01:01:29;15.50;85.80
54938;DHT22;52756;52.826;6.214;2023-08-06T01:03:56;15.50;85.80
54938;DHT22;52756;52.826;6.214;2023-08-06T01:09:11;15.50;85.70
54938;DHT22;52756;52.826;6.214;2023-08-06T01:12:06;15.50;85.70
54938;DHT22;52756;52.826;6.214;2023-08-06T01:14:44;15.40;85.40
54938;DHT22;52756;52.826;6.214;2023-08-06T01:17:12;15.40;85.50
54938;DHT22;52756;52.826;6.214;2023-08-06T01:19:39;15.40;85.50
54938;DHT22;52756;52.826;6.214;2023-08-06T01:22:05;15.40;85.50
54938;DHT22;52756;52.826;6.214;2023-08-06T01:24:30;15.40;85.50
54938;DHT22;52756;52.826;6.214;2023-08-06T01:27:08;15.40;85.50
54938;DHT22;52756;52.826;6.214;2023-08-06T01:29:56;15.40;85.50
54938;DHT22;52756;52.826;6.214;2023-08-06T01:32:25;15.40;85.50
54938;DHT22;52756;52.826;6.214;2023-08-06T01:34:52;15.40;85.40
54938;DHT22;52756;52.826;6.214;2023-08-06T01:37:19;15.40;85.30
54938;DHT22;52756;52.826;6.214;2023-08-06T01:39:45;15.40;85.30
54938;DHT22;52756;52.826;6.214;2023-08-06T01:42:11;15.40;85.30
54938;DHT22;52756;52.826;6.214;2023-08-06T01:44:37;15.50;85.40
54938;DHT22;52756;52.826;6.214;2023-08-06T01:47:03;15.50;85.30
54938;DHT22;52756;52.826;6.214;2023-08-06T01:49:28;15.50;85.20
54938;DHT22;52756;52.826;6.214;2023-08-06T01:51:54;15.50;85.00
54938;DHT22;52756;52.826;6.214;2023-08-06T01:54:20;15.50;84.90
54938;DHT22;52756;52.826;6.214;2023-08-06T01:56:45;15.50;84.90
54938;DHT22;52756;52.826;6.214;2023-08-06T01:59:11;15.50;84.90
54938;DHT22;52756;52.826;6.214;2023-08-06T02:01:37;15.50;84.90
54938;DHT22;52756;52.826;6.214;2023-08-06T02:04:02;15.50;84.90
54938;DHT22;52756;52.826;6.214;2023-08-06T02:06:28;15.50;84.80
54938;DHT22;52756;52.826;6.214;2023-08-06T02:08:54;15.50;84.80
54938;DHT22;52756;52.826;6.214;2023-08-06T02:11:19;15.50;84.80
54938;DHT22;52756;52.826;6.214;2023-08-06T02:13:46;15.50;84.70
54938;DHT22;52756;52.826;6.214;2023-08-06T02:16:11;15.50;84.70
54938;DHT22;52756;52.826;6.214;2023-08-06T02:18:37;15.50;84.70
54938;DHT22;52756;52.826;6.214;2023-08-06T02:21:03;15.50;84.70
54938;DHT22;52756;52.826;6.214;2023-08-06T02:23:28;15.50;84.60
54938;DHT22;52756;52.826;6.214;2023-08-06T02:26:02;15.50;84.60
54938;DHT22;52756;52.826;6.214;2023-08-06T02:28:29;15.40;84.50
54938;DHT22;52756;52.826;6.214;2023-08-06T02:30:55;15.40;84.50
54938;DHT22;52756;52.826;6.214;2023-08-06T02:33:21;15.40;84.50
54938;DHT22;52756;52.826;6.214;2023-08-06T02:35:46;15.30;84.40
54938;DHT22;52756;52.826;6.214;2023-08-06T02:38:12;15.30;84.50
54938;DHT22;52756;52.826;6.214;2023-08-06T02:40:43;15.30;84.50
54938;DHT22;52756;52.826;6.214;2023-08-06T02:43:10;15.30;84.70
54938;DHT22;52756;52.826;6.214;2023-08-06T02:45:35;15.20;84.60
54938;DHT22;52756;52.826;6.214;2023-08-06T02:48:01;15.20;84.60
54938;DHT22;52756;52.826;6.214;2023-08-06T02:50:28;15.10;84.70
54938;DHT22;52756;52.826;6.214;2023-08-06T02:52:53;15.10;84.70
54938;DHT22;52756;52.826;6.214;2023-08-06T02:55:19;15.00;84.70
54938;DHT22;52756;52.826;6.214;2023-08-06T02:57:45;15.00;84.80
54938;DHT22;52756;52.826;6.214;2023-08-06T03:00:11;15.00;84.90
54938;DHT22;52756;52.826;6.214;2023-08-06T03:02:37;15.00;84.90
54938;DHT22;52756;52.826;6.214;2023-08-06T03:05:03;15.00;85.00
54938;DHT22;52756;52.826;6.214;2023-08-06T03:07:29;15.00;84.90
54938;DHT22;52756;52.826;6.214;2023-08-06T03:09:55;15.00;85.00
54938;DHT22;52756;52.826;6.214;2023-08-06T03:12:20;15.00;85.00
54938;DHT22;52756;52.826;6.214;2023-08-06T03:14:46;15.00;84.90
54938;DHT22;52756;52.826;6.214;2023-08-06T03:17:12;15.00;85.00
54938;DHT22;52756;52.826;6.214;2023-08-06T03:19:38;15.00;85.10
54938;DHT22;52756;52.826;6.214;2023-08-06T03:22:04;15.00;85.10
54938;DHT22;52756;52.826;6.214;2023-08-06T03:24:29;14.90;85.10
54938;DHT22;52756;52.826;6.214;2023-08-06T03:26:55;15.00;85.30
54938;DHT22;52756;52.826;6.214;2023-08-06T03:29:21;15.00;85.30
54938;DHT22;52756;52.826;6.214;2023-08-06T03:31:47;15.00;85.40
54938;DHT22;52756;52.826;6.214;2023-08-06T03:34:13;15.00;85.50
54938;DHT22;52756;52.826;6.214;2023-08-06T03:36:39;15.00;85.50
54938;DHT22;52756;52.826;6.214;2023-08-06T03:39:04;15.00;85.50
54938;DHT22;52756;52.826;6.214;2023-08-06T03:41:30;15.10;85.50
54938;DHT22;52756;52.826;6.214;2023-08-06T03:43:56;15.10;85.50
54938;DHT22;52756;52.826;6.214;2023-08-06T03:46:21;15.10;85.50
54938;DHT22;52756;52.826;6.214;2023-08-06T03:48:47;15.10;85.40
54938;DHT22;52756;52.826;6.214;2023-08-06T03:51:13;15.10;85.40
54938;DHT22;52756;52.826;6.214;2023-08-06T03:53:38;15.20;85.40
54938;DHT22;52756;52.826;6.214;2023-08-06T03:56:04;15.20;85.40
54938;DHT22;52756;52.826;6.214;2023-08-06T03:58:30;15.20;85.40
54938;DHT22;52756;52.826;6.214;2023-08-06T04:01:03;15.30;85.30
54938;DHT22;52756;52.826;6.214;2023-08-06T04:03:29;15.30;85.20
54938;DHT22;52756;52.826;6.214;2023-08-06T04:05:55;15.30;85.10
54938;DHT22;52756;52.826;6.214;2023-08-06T04:08:20;15.30;85.00
54938;DHT22;52756;52.826;6.214;2023-08-06T04:10:50;15.30;85.00
54938;DHT22;52756;52.826;6.214;2023-08-06T04:13:16;15.30;85.00
54938;DHT22;52756;52.826;6.214;2023-08-06T04:15:42;15.30;85.00
54938;DHT22;52756;52.826;6.214;2023-08-06T04:18:07;15.30;84.90
54938;DHT22;52756;52.826;6.214;2023-08-06T04:20:33;15.40;84.90
54938;DHT22;52756;52.826;6.214;2023-08-06T04:22:59;15.40;84.90
54938;DHT22;52756;52.826;6.214;2023-08-06T04:25:24;15.40;84.80
54938;DHT22;52756;52.826;6.214;2023-08-06T04:27:50;15.40;84.80
54938;DHT22;52756;52.826;6.214;2023-08-06T04:30:16;15.40;84.70
54938;DHT22;52756;52.826;6.214;2023-08-06T04:32:42;15.50;84.70
54938;DHT22;52756;52.826;6.214;2023-08-06T04:35:08;15.50;84.70
54938;DHT22;52756;52.826;6.214;2023-08-06T04:37:33;15.50;84.60
54938;DHT22;52756;52.826;6.214;2023-08-06T04:39:59;15.50;84.50
54938;DHT22;52756;52.826;6.214;2023-08-06T04:42:25;15.50;84.40
54938;DHT22;52756;52.826;6.214;2023-08-06T04:44:50;15.50;84.30
54938;DHT22;52756;52.826;6.214;2023-08-06T04:47:16;15.60;84.30
54938;DHT22;52756;52.826;6.214;2023-08-06T04:49:42;15.60;84.20
54938;DHT22;52756;52.826;6.214;2023-08-06T04:52:07;15.60;84.10
54938;DHT22;52756;52.826;6.214;2023-08-06T04:54:33;15.60;84.00
54938;DHT22;52756;52.826;6.214;2023-08-06T04:56:59;15.70;84.00
54938;DHT22;52756;52.826;6.214;2023-08-06T04:59:25;15.60;83.90
54938;DHT22;52756;52.826;6.214;2023-08-06T05:01:50;15.70;83.90
54938;DHT22;52756;52.826;6.214;2023-08-06T05:04:16;15.70;83.80
54938;DHT22;52756;52.826;6.214;2023-08-06T05:06:42;15.70;83.80
54938;DHT22;52756;52.826;6.214;2023-08-06T05:09:08;15.70;83.70
54938;DHT22;52756;52.826;6.214;2023-08-06T05:11:33;15.80;83.80
54938;DHT22;52756;52.826;6.214;2023-08-06T05:13:59;15.80;83.70
54938;DHT22;52756;52.826;6.214;2023-08-06T05:16:25;15.80;83.70
54938;DHT22;52756;52.826;6.214;2023-08-06T05:18:50;15.80;83.60
54938;DHT22;52756;52.826;6.214;2023-08-06T05:21:16;15.90;83.70
54938;DHT22;52756;52.826;6.214;2023-08-06T05:23:42;15.80;83.60
54938;DHT22;52756;52.826;6.214;2023-08-06T05:26:08;15.90;83.60
54938;DHT22;52756;52.826;6.214;2023-08-06T05:28:34;15.90;83.60
54938;DHT22;52756;52.826;6.214;2023-08-06T05:31:04;15.90;83.60
54938;DHT22;52756;52.826;6.214;2023-08-06T05:33:30;15.90;83.60
54938;DHT22;52756;52.826;6.214;2023-08-06T05:35:56;15.90;83.60
54938;DHT22;52756;52.826;6.214;2023-08-06T05:38:22;15.90;83.60
54938;DHT22;52756;52.826;6.214;2023-08-06T05:40:47;15.90;83.50
54938;DHT22;52756;52.826;6.214;2023-08-06T05:43:14;15.90;83.40
54938;DHT22;52756;52.826;6.214;2023-08-06T05:45:44;15.90;83.40
54938;DHT22;52756;52.826;6.214;2023-08-06T05:48:10;15.90;83.50
54938;DHT22;52756;52.826;6.214;2023-08-06T05:50:36;15.90;83.60
54938;DHT22;52756;52.826;6.214;2023-08-06T05:53:02;16.00;83.60
54938;DHT22;52756;52.826;6.214;2023-08-06T05:55:27;15.90;83.60
54938;DHT22;52756;52.826;6.214;2023-08-06T05:57:53;16.00;83.70
54938;DHT22;52756;52.826;6.214;2023-08-06T06:00:21;16.00;83.70
54938;DHT22;52756;52.826;6.214;2023-08-06T06:02:47;16.00;83.70
54938;DHT22;52756;52.826;6.214;2023-08-06T06:05:13;16.00;83.80
54938;DHT22;52756;52.826;6.214;2023-08-06T06:07:38;16.00;84.00
54938;DHT22;52756;52.826;6.214;2023-08-06T06:10:04;16.00;84.00
54938;DHT22;52756;52.826;6.214;2023-08-06T06:12:30;16.00;84.10
54938;DHT22;52756;52.826;6.214;2023-08-06T06:14:56;16.00;84.10
54938;DHT22;52756;52.826;6.214;2023-08-06T06:17:22;16.00;84.20
54938;DHT22;52756;52.826;6.214;2023-08-06T06:19:47;16.00;84.30
54938;DHT22;52756;52.826;6.214;2023-08-06T06:22:14;16.00;84.30
54938;DHT22;52756;52.826;6.214;2023-08-06T06:24:39;16.10;84.40
54938;DHT22;52756;52.826;6.214;2023-08-06T06:27:05;16.10;84.40
54938;DHT22;52756;52.826;6.214;2023-08-06T06:29:31;16.10;84.40
54938;DHT22;52756;52.826;6.214;2023-08-06T06:31:57;16.10;84.30
54938;DHT22;52756;52.826;6.214;2023-08-06T06:34:22;16.20;84.30
54938;DHT22;52756;52.826;6.214;2023-08-06T06:36:48;16.20;84.30
54938;DHT22;52756;52.826;6.214;2023-08-06T06:39:15;16.20;84.30
54938;DHT22;52756;52.826;6.214;2023-08-06T06:41:41;16.30;84.30
54938;DHT22;52756;52.826;6.214;2023-08-06T06:44:06;16.30;84.30
54938;DHT22;52756;52.826;6.214;2023-08-06T06:46:32;16.30;84.20
54938;DHT22;52756;52.826;6.214;2023-08-06T06:48:58;16.40;84.20
54938;DHT22;52756;52.826;6.214;2023-08-06T06:51:23;16.40;84.10
54938;DHT22;52756;52.826;6.214;2023-08-06T06:53:49;16.40;84.00
54938;DHT22;52756;52.826;6.214;2023-08-06T06:56:14;16.40;84.00
54938;DHT22;52756;52.826;6.214;2023-08-06T06:58:40;16.40;84.00
54938;DHT22;52756;52.826;6.214;2023-08-06T07:01:07;16.50;84.10
54938;DHT22;52756;52.826;6.214;2023-08-06T07:03:33;16.50;84.20
54938;DHT22;52756;52.826;6.214;2023-08-06T07:05:59;16.50;84.20
54938;DHT22;52756;52.826;6.214;2023-08-06T07:08:25;16.50;84.10
54938;DHT22;52756;52.826;6.214;2023-08-06T07:10:58;16.60;84.00
54938;DHT22;52756;52.826;6.214;2023-08-06T07:13:24;16.60;84.00
54938;DHT22;52756;52.826;6.214;2023-08-06T07:15:50;16.60;84.10
54938;DHT22;52756;52.826;6.214;2023-08-06T07:18:16;16.70;84.60
54938;DHT22;52756;52.826;6.214;2023-08-06T07:20:41;16.70;84.30
54938;DHT22;52756;52.826;6.214;2023-08-06T07:23:07;16.70;84.00
54938;DHT22;52756;52.826;6.214;2023-08-06T07:25:33;16.70;83.80
54938;DHT22;52756;52.826;6.214;2023-08-06T07:27:58;16.70;83.90
54938;DHT22;52756;52.826;6.214;2023-08-06T07:30:24;16.80;83.90
54938;DHT22;52756;52.826;6.214;2023-08-06T07:32:50;16.80;83.80
54938;DHT22;52756;52.826;6.214;2023-08-06T07:35:15;16.80;83.70
54938;DHT22;52756;52.826;6.214;2023-08-06T07:37:41;16.90;83.70
54938;DHT22;52756;52.826;6.214;2023-08-06T07:40:07;16.90;83.60
54938;DHT22;52756;52.826;6.214;2023-08-06T07:42:34;16.90;83.40
54938;DHT22;52756;52.826;6.214;2023-08-06T07:44:59;16.90;83.20
54938;DHT22;52756;52.826;6.214;2023-08-06T07:47:25;17.00;83.20
54938;DHT22;52756;52.826;6.214;2023-08-06T07:49:51;17.00;83.20
54938;DHT22;52756;52.826;6.214;2023-08-06T07:52:17;17.00;83.00
54938;DHT22;52756;52.826;6.214;2023-08-06T07:54:43;17.10;82.80
54938;DHT22;52756;52.826;6.214;2023-08-06T07:57:08;17.10;82.90
54938;DHT22;52756;52.826;6.214;2023-08-06T07:59:34;17.10;83.00
54938;DHT22;52756;52.826;6.214;2023-08-06T08:02:00;17.20;83.20
54938;DHT22;52756;52.826;6.214;2023-08-06T08:04:26;17.20;83.10
54938;DHT22;52756;52.826;6.214;2023-08-06T08:06:52;17.30;83.10
54938;DHT22;52756;52.826;6.214;2023-08-06T08:09:17;17.30;82.60
54938;DHT22;52756;52.826;6.214;2023-08-06T08:11:43;17.30;82.50
54938;DHT22;52756;52.826;6.214;2023-08-06T08:14:09;17.40;82.50
54938;DHT22;52756;52.826;6.214;2023-08-06T08:16:35;17.40;82.40
54938;DHT22;52756;52.826;6.214;2023-08-06T08:19:00;17.40;82.20
54938;DHT22;52756;52.826;6.214;2023-08-06T08:21:27;17.50;82.20
54938;DHT22;52756;52.826;6.214;2023-08-06T08:23:52;17.50;82.00
54938;DHT22;52756;52.826;6.214;2023-08-06T08:26:18;17.50;81.80
54938;DHT22;52756;52.826;6.214;2023-08-06T08:28:44;17.60;81.90
54938;DHT22;52756;52.826;6.214;2023-08-06T08:31:10;17.60;81.70
54938;DHT22;52756;52.826;6.214;2023-08-06T08:33:37;17.60;81.30
54938;DHT22;52756;52.826;6.214;2023-08-06T08:36:03;17.60;81.10
54938;DHT22;52756;52.826;6.214;2023-08-06T08:38:29;17.70;81.40
54938;DHT22;52756;52.826;6.214;2023-08-06T08:40:55;17.70;81.40
54938;DHT22;52756;52.826;6.214;2023-08-06T08:43:21;17.70;81.50
54938;DHT22;52756;52.826;6.214;2023-08-06T08:45:50;17.70;81.60
54938;DHT22;52756;52.826;6.214;2023-08-06T08:48:16;17.80;81.70
54938;DHT22;52756;52.826;6.214;2023-08-06T08:50:45;17.90;81.50
54938;DHT22;52756;52.826;6.214;2023-08-06T08:53:11;18.00;81.30
54938;DHT22;52756;52.826;6.214;2023-08-06T08:55:38;18.00;81.30
54938;DHT22;52756;52.826;6.214;2023-08-06T08:58:04;18.10;81.20
54938;DHT22;52756;52.826;6.214;2023-08-06T09:00:30;18.20;81.10
54938;DHT22;52756;52.826;6.214;2023-08-06T09:02:59;18.20;80.40
54938;DHT22;52756;52.826;6.214;2023-08-06T09:05:28;18.30;80.10
54938;DHT22;52756;52.826;6.214;2023-08-06T09:07:55;18.40;80.50
54938;DHT22;52756;52.826;6.214;2023-08-06T09:10:22;18.50;80.80
54938;DHT22;52756;52.826;6.214;2023-08-06T09:12:51;18.60;80.80
54938;DHT22;52756;52.826;6.214;2023-08-06T09:15:20;18.70;80.80
54938;DHT22;52756;52.826;6.214;2023-08-06T09:17:45;18.90;80.90
54938;DHT22;52756;52.826;6.214;2023-08-06T09:20:15;19.00;80.40
54938;DHT22;52756;52.826;6.214;2023-08-06T09:22:41;19.10;79.70
54938;DHT22;52756;52.826;6.214;2023-08-06T09:25:07;19.20;79.20
54938;DHT22;52756;52.826;6.214;2023-08-06T09:27:40;19.30;78.80
54938;DHT22;52756;52.826;6.214;2023-08-06T09:30:07;19.40;77.80
54938;DHT22;52756;52.826;6.214;2023-08-06T09:32:45;19.50;77.90
54938;DHT22;52756;52.826;6.214;2023-08-06T09:35:16;19.60;77.20
54938;DHT22;52756;52.826;6.214;2023-08-06T09:37:42;19.60;77.50
54938;DHT22;52756;52.826;6.214;2023-08-06T09:40:27;19.70;77.10
54938;DHT22;52756;52.826;6.214;2023-08-06T09:42:53;19.70;76.50
54938;DHT22;52756;52.826;6.214;2023-08-06T09:45:19;19.80;76.70
54938;DHT22;52756;52.826;6.214;2023-08-06T09:47:45;19.80;76.50
54938;DHT22;52756;52.826;6.214;2023-08-06T09:50:18;19.90;76.00
54938;DHT22;52756;52.826;6.214;2023-08-06T09:52:44;19.90;76.40
54938;DHT22;52756;52.826;6.214;2023-08-06T09:55:14;20.00;76.70
54938;DHT22;52756;52.826;6.214;2023-08-06T09:57:41;20.00;76.40
54938;DHT22;52756;52.826;6.214;2023-08-06T10:00:10;20.10;76.00
54938;DHT22;52756;52.826;6.214;2023-08-06T10:02:37;20.20;75.40
54938;DHT22;52756;52.826;6.214;2023-08-06T10:05:05;20.20;75.10
54938;DHT22;52756;52.826;6.214;2023-08-06T10:07:31;20.30;74.80
54938;DHT22;52756;52.826;6.214;2023-08-06T10:09:58;20.40;74.60
54938;DHT22;52756;52.826;6.214;2023-08-06T10:12:24;20.40;74.30
54938;DHT22;52756;52.826;6.214;2023-08-06T10:14:52;20.50;74.10
54938;DHT22;52756;52.826;6.214;2023-08-06T10:17:23;20.60;73.60
54938;DHT22;52756;52.826;6.214;2023-08-06T10:19:50;20.60;73.10
54938;DHT22;52756;52.826;6.214;2023-08-06T10:22:17;20.60;73.00
54938;DHT22;52756;52.826;6.214;2023-08-06T10:30:20;20.80;72.30
54938;DHT22;52756;52.826;6.214;2023-08-06T10:32:52;20.80;72.00
54938;DHT22;52756;52.826;6.214;2023-08-06T10:35:40;20.80;71.20
54938;DHT22;52756;52.826;6.214;2023-08-06T10:38:19;20.80;70.80
54938;DHT22;52756;52.826;6.214;2023-08-06T10:41:06;20.70;70.40
54938;DHT22;52756;52.826;6.214;2023-08-06T10:43:37;20.80;70.50
54938;DHT22;52756;52.826;6.214;2023-08-06T10:46:10;20.70;70.40
54938;DHT22;52756;52.826;6.214;2023-08-06T10:48:44;20.70;70.20
54938;DHT22;52756;52.826;6.214;2023-08-06T10:51:12;20.70;70.70
54938;DHT22;52756;52.826;6.214;2023-08-06T10:53:42;20.70;71.20
54938;DHT22;52756;52.826;6.214;2023-08-06T10:56:19;20.80;70.50
54938;DHT22;52756;52.826;6.214;2023-08-06T10:58:46;20.80;70.10
54938;DHT22;52756;52.826;6.214;2023-08-06T11:01:12;20.80;69.70
54938;DHT22;52756;52.826;6.214;2023-08-06T11:03:39;20.90;70.10
54938;DHT22;52756;52.826;6.214;2023-08-06T11:06:07;20.90;70.00
54938;DHT22;52756;52.826;6.214;2023-08-06T11:08:47;20.90;69.50
54938;DHT22;52756;52.826;6.214;2023-08-06T11:11:15;21.00;70.10
54938;DHT22;52756;52.826;6.214;2023-08-06T11:13:48;21.00;70.00
54938;DHT22;52756;52.826;6.214;2023-08-06T11:16:16;21.00;70.10
54938;DHT22;52756;52.826;6.214;2023-08-06T11:18:43;21.10;70.00
54938;DHT22;52756;52.826;6.214;2023-08-06T11:21:09;21.20;70.10
54938;DHT22;52756;52.826;6.214;2023-08-06T11:23:35;21.30;70.10
54938;DHT22;52756;52.826;6.214;2023-08-06T11:26:01;21.40;69.90
54938;DHT22;52756;52.826;6.214;2023-08-06T11:28:27;21.50;68.90
54938;DHT22;52756;52.826;6.214;2023-08-06T11:30:53;21.60;68.20
54938;DHT22;52756;52.826;6.214;2023-08-06T11:33:29;21.60;66.70
54938;DHT22;52756;52.826;6.214;2023-08-06T11:35:56;21.50;65.80
54938;DHT22;52756;52.826;6.214;2023-08-06T11:38:24;21.50;66.90
54938;DHT22;52756;52.826;6.214;2023-08-06T11:40:50;21.50;67.60
54938;DHT22;52756;52.826;6.214;2023-08-06T11:43:18;21.60;67.80
54938;DHT22;52756;52.826;6.214;2023-08-06T11:45:44;21.60;67.60
54938;DHT22;52756;52.826;6.214;2023-08-06T11:48:10;21.70;67.70
54938;DHT22;52756;52.826;6.214;2023-08-06T11:50:37;21.70;65.40
54938;DHT22;52756;52.826;6.214;2023-08-06T11:53:04;21.70;66.20
54938;DHT22;52756;52.826;6.214;2023-08-06T11:55:30;21.70;66.20
54938;DHT22;52756;52.826;6.214;2023-08-06T11:57:56;21.80;66.80
54938;DHT22;52756;52.826;6.214;2023-08-06T12:00:25;21.90;66.90
54938;DHT22;52756;52.826;6.214;2023-08-06T12:02:52;21.90;65.20
54938;DHT22;52756;52.826;6.214;2023-08-06T12:05:19;21.90;63.20
54938;DHT22;52756;52.826;6.214;2023-08-06T12:07:51;22.00;63.20
54938;DHT22;52756;52.826;6.214;2023-08-06T12:10:19;22.00;63.50
54938;DHT22;52756;52.826;6.214;2023-08-06T12:12:46;22.00;62.20
54938;DHT22;52756;52.826;6.214;2023-08-06T12:15:12;22.00;61.60
54938;DHT22;52756;52.826;6.214;2023-08-06T12:17:38;22.00;62.20
54938;DHT22;52756;52.826;6.214;2023-08-06T12:20:05;22.00;62.40
54938;DHT22;52756;52.826;6.214;2023-08-06T12:22:31;22.00;62.10
54938;DHT22;52756;52.826;6.214;2023-08-06T12:25:11;22.00;62.40
54938;DHT22;52756;52.826;6.214;2023-08-06T12:27:40;22.10;61.90
54938;DHT22;52756;52.826;6.214;2023-08-06T12:30:07;22.10;61.70
54938;DHT22;52756;52.826;6.214;2023-08-06T12:32:33;22.10;61.00
54938;DHT22;52756;52.826;6.214;2023-08-06T12:35:00;22.20;61.90
54938;DHT22;52756;52.826;6.214;2023-08-06T12:37:26;22.20;61.60
54938;DHT22;52756;52.826;6.214;2023-08-06T12:39:52;22.30;62.00
54938;DHT22;52756;52.826;6.214;2023-08-06T12:42:17;22.40;63.00
54938;DHT22;52756;52.826;6.214;2023-08-06T12:44:43;22.50;63.70
54938;DHT22;52756;52.826;6.214;2023-08-06T12:47:09;22.50;63.90
54938;DHT22;52756;52.826;6.214;2023-08-06T12:49:35;22.60;63.60
54938;DHT22;52756;52.826;6.214;2023-08-06T12:52:01;22.70;63.20
54938;DHT22;52756;52.826;6.214;2023-08-06T12:54:28;22.70;63.20
54938;DHT22;52756;52.826;6.214;2023-08-06T12:56:53;22.70;63.00
54938;DHT22;52756;52.826;6.214;2023-08-06T12:59:20;22.80;63.00
54938;DHT22;52756;52.826;6.214;2023-08-06T13:01:46;22.80;63.50
54938;DHT22;52756;52.826;6.214;2023-08-06T13:04:12;22.80;64.10
54938;DHT22;52756;52.826;6.214;2023-08-06T13:06:38;22.80;64.60
54938;DHT22;52756;52.826;6.214;2023-08-06T13:09:08;22.80;64.90
54938;DHT22;52756;52.826;6.214;2023-08-06T13:11:35;22.80;65.00
54938;DHT22;52756;52.826;6.214;2023-08-06T13:14:07;22.80;65.10
54938;DHT22;52756;52.826;6.214;2023-08-06T13:16:34;22.80;65.20
54938;DHT22;52756;52.826;6.214;2023-08-06T13:19:00;22.80;65.40
54938;DHT22;52756;52.826;6.214;2023-08-06T13:24:11;22.70;65.90
54938;DHT22;52756;52.826;6.214;2023-08-06T13:26:38;22.70;66.20
54938;DHT22;52756;52.826;6.214;2023-08-06T13:29:04;22.70;66.20
54938;DHT22;52756;52.826;6.214;2023-08-06T13:31:30;22.60;66.50
54938;DHT22;52756;52.826;6.214;2023-08-06T13:33:55;22.60;66.70
54938;DHT22;52756;52.826;6.214;2023-08-06T13:36:23;22.60;67.20
54938;DHT22;52756;52.826;6.214;2023-08-06T13:38:49;22.50;67.50
54938;DHT22;52756;52.826;6.214;2023-08-06T13:41:15;22.50;67.70
54938;DHT22;52756;52.826;6.214;2023-08-06T13:43:41;22.50;67.60
54938;DHT22;52756;52.826;6.214;2023-08-06T13:46:07;22.40;67.60
54938;DHT22;52756;52.826;6.214;2023-08-06T13:48:33;22.40;67.30
54938;DHT22;52756;52.826;6.214;2023-08-06T13:50:58;22.40;67.50
54938;DHT22;52756;52.826;6.214;2023-08-06T13:53:24;22.30;67.50
54938;DHT22;52756;52.826;6.214;2023-08-06T13:55:55;22.20;67.60
54938;DHT22;52756;52.826;6.214;2023-08-06T13:58:22;22.20;67.40
54938;DHT22;52756;52.826;6.214;2023-08-06T14:00:48;22.10;67.70
54938;DHT22;52756;52.826;6.214;2023-08-06T14:03:13;22.10;67.80
54938;DHT22;52756;52.826;6.214;2023-08-06T14:05:39;22.00;67.60
54938;DHT22;52756;52.826;6.214;2023-08-06T14:08:07;21.90;67.50
54938;DHT22;52756;52.826;6.214;2023-08-06T14:10:33;21.90;67.10
54938;DHT22;52756;52.826;6.214;2023-08-06T14:12:58;21.80;66.90
54938;DHT22;52756;52.826;6.214;2023-08-06T14:15:24;21.60;66.50
54938;DHT22;52756;52.826;6.214;2023-08-06T14:17:50;21.50;66.70
54938;DHT22;52756;52.826;6.214;2023-08-06T14:20:16;21.40;66.80
54938;DHT22;52756;52.826;6.214;2023-08-06T14:22:41;21.30;66.90
54938;DHT22;52756;52.826;6.214;2023-08-06T14:25:07;21.20;67.20
54938;DHT22;52756;52.826;6.214;2023-08-06T14:27:33;21.10;67.60
54938;DHT22;52756;52.826;6.214;2023-08-06T14:29:59;21.00;68.00
54938;DHT22;52756;52.826;6.214;2023-08-06T14:32:25;21.00;68.40
54938;DHT22;52756;52.826;6.214;2023-08-06T14:34:51;20.90;68.50
54938;DHT22;52756;52.826;6.214;2023-08-06T14:37:17;20.80;68.70
54938;DHT22;52756;52.826;6.214;2023-08-06T14:39:43;20.70;68.70
54938;DHT22;52756;52.826;6.214;2023-08-06T14:42:09;20.60;68.90
54938;DHT22;52756;52.826;6.214;2023-08-06T14:44:34;20.50;69.30
54938;DHT22;52756;52.826;6.214;2023-08-06T14:47:00;20.40;70.20
54938;DHT22;52756;52.826;6.214;2023-08-06T14:49:26;20.40;70.10
54938;DHT22;52756;52.826;6.214;2023-08-06T14:51:51;20.30;70.40
54938;DHT22;52756;52.826;6.214;2023-08-06T14:54:17;20.20;70.70
54938;DHT22;52756;52.826;6.214;2023-08-06T14:56:43;20.20;71.20
54938;DHT22;52756;52.826;6.214;2023-08-06T14:59:09;20.10;71.30
54938;DHT22;52756;52.826;6.214;2023-08-06T15:01:35;20.00;71.60
54938;DHT22;52756;52.826;6.214;2023-08-06T15:04:01;20.00;71.90
54938;DHT22;52756;52.826;6.214;2023-08-06T15:06:26;19.90;72.20
54938;DHT22;52756;52.826;6.214;2023-08-06T15:08:52;19.80;72.30
54938;DHT22;52756;52.826;6.214;2023-08-06T15:11:19;19.70;72.40
54938;DHT22;52756;52.826;6.214;2023-08-06T15:13:45;19.60;72.60
54938;DHT22;52756;52.826;6.214;2023-08-06T15:16:10;19.60;72.70
54938;DHT22;52756;52.826;6.214;2023-08-06T15:18:36;19.60;73.00
54938;DHT22;52756;52.826;6.214;2023-08-06T15:21:02;19.50;73.10
54938;DHT22;52756;52.826;6.214;2023-08-06T15:23:27;19.40;73.10
54938;DHT22;52756;52.826;6.214;2023-08-06T15:25:53;19.40;73.30
54938;DHT22;52756;52.826;6.214;2023-08-06T15:28:19;19.30;73.30
54938;DHT22;52756;52.826;6.214;2023-08-06T15:30:51;19.30;73.50
54938;DHT22;52756;52.826;6.214;2023-08-06T15:33:18;19.20;73.70
54938;DHT22;52756;52.826;6.214;2023-08-06T15:35:44;19.20;73.90
54938;DHT22;52756;52.826;6.214;2023-08-06T15:38:09;19.20;74.10